Time;durP1;ratioP1;P1;durP2;ratioP2;P2;SDS_P1;SDS_P2;PMS_P1;PMS_P2;Temp;Humidity;BMP_temperature;BMP_pressure;BME280_temperature;BME280_humidity;BME280_pressure;Samples;Min_cycle;Max_cycle;Signal;HPM_P1;HPM_P2
2024/03/10 00:01:42;;;;;;;;;;;9.20;99.90;;;9.60;58.38;98660.16;4961300;28;19927;-82
2024/03/10 00:04:09;;;;;;;;;;;9.20;99.90;;;9.57;58.42;98659.88;4961309;29;19927;-82
2024/03/10 00:06:38;;;;;;;;;;;9.20;99.90;;;9.54;58.51;98653.97;4943623;29;19934;-82
2024/03/10 00:09:05;;;;;;;;;;;9.20;99.90;;;9.54;58.48;98650.50;4942888;29;20385;-82
2024/03/10 00:11:32;;;;;;;;;;;9.10;99.90;;;9.51;58.45;98656.31;4943648;29;19986;-82
2024/03/10 00:14:00;;;;;;;;;;;9.10;99.90;;;9.50;58.39;98652.06;4942954;29;19989;-82
2024/03/10 00:16:27;;;;;;;;;;;9.10;99.90;;;9.48;58.58;98651.50;4927417;29;19957;-82
2024/03/10 00:18:54;;;;;;;;;;;9.10;99.90;;;9.45;58.61;98650.13;4960222;28;19981;-82
2024/03/10 00:21:21;;;;;;;;;;;9.10;99.90;;;9.45;58.40;98649.34;4960374;29;19926;-82
2024/03/10 00:23:50;;;;;;;;;;;9.10;99.90;;;9.43;58.39;98648.78;4943124;29;19942;-82
2024/03/10 00:26:17;;;;;;;;;;;9.10;99.90;;;9.42;58.26;98649.81;4946919;29;20021;-82
2024/03/10 00:28:45;;;;;;;;;;;9.10;99.90;;;9.44;58.47;98648.53;4964354;28;19965;-82
2024/03/10 00:31:13;;;;;;;;;;;9.10;99.90;;;9.40;58.46;98649.28;4947451;29;19926;-82
2024/03/10 00:33:40;;;;;;;;;;;9.00;99.90;;;9.39;58.21;98648.47;4962531;29;19926;-82
2024/03/10 00:36:08;;;;;;;;;;;9.00;99.90;;;9.34;58.25;98651.09;4947489;29;19950;-82
2024/03/10 00:38:36;;;;;;;;;;;9.00;99.90;;;9.36;58.40;98648.97;4946221;29;19938;-82
2024/03/10 00:41:05;;;;;;;;;;;9.00;99.90;;;9.39;58.29;98659.13;4930682;29;19926;-82
2024/03/10 00:43:33;;;;;;;;;;;9.00;99.90;;;9.39;58.25;98648.47;4947034;29;19927;-82
2024/03/10 00:46:00;;;;;;;;;;;9.10;99.90;;;9.38;58.01;98652.19;4963558;29;19927;-82
2024/03/10 00:48:28;;;;;;;;;;;9.10;99.90;;;9.39;57.96;98643.16;4964025;28;20311;-82
2024/03/10 00:50:55;;;;;;;;;;;9.10;99.90;;;9.38;58.07;98640.75;4964332;28;20021;-82
2024/03/10 00:53:22;;;;;;;;;;;9.00;99.90;;;9.39;58.08;98645.03;4946714;29;19978;-82
2024/03/10 00:55:49;;;;;;;;;;;9.00;99.90;;;9.37;58.14;98647.09;4946613;29;20384;-82
2024/03/10 00:58:18;;;;;;;;;;;9.00;99.90;;;9.34;58.34;98640.44;4963881;28;19926;-82
2024/03/10 01:00:45;;;;;;;;;;;9.00;99.90;;;9.36;58.13;98642.84;4964440;28;19986;-82
2024/03/10 01:03:15;;;;;;;;;;;9.00;99.90;;;9.34;57.97;98640.44;4962243;28;19926;-82
2024/03/10 01:05:42;;;;;;;;;;;9.00;99.90;;;9.31;58.09;98640.13;4964294;29;20324;-82
2024/03/10 01:08:10;;;;;;;;;;;9.00;99.90;;;9.28;58.05;98636.91;4945525;29;20380;-82
2024/03/10 01:10:37;;;;;;;;;;;9.00;99.90;;;9.28;58.03;98630.81;4945446;29;19931;-82
2024/03/10 01:13:15;;;;;;;;;;;9.00;99.90;;;9.27;58.13;98637.97;4929680;29;19926;-82
2024/03/10 01:15:44;;;;;;;;;;;8.90;99.90;;;9.26;58.04;98636.34;4945430;29;19926;-82
2024/03/10 01:18:11;;;;;;;;;;;8.90;99.90;;;9.25;58.15;98637.41;4961288;28;19926;-82
2024/03/10 01:20:38;;;;;;;;;;;8.90;99.90;;;9.24;58.23;98638.47;4962716;29;20021;-82
2024/03/10 01:23:06;;;;;;;;;;;8.90;99.90;;;9.25;58.40;98642.72;4946221;29;19938;-82
2024/03/10 01:25:33;;;;;;;;;;;8.90;99.90;;;9.24;58.25;98648.31;4945332;29;20017;-82
2024/03/10 01:28:01;;;;;;;;;;;8.90;99.90;;;9.25;58.47;98645.38;4960620;28;19950;-82
2024/03/10 01:30:28;;;;;;;;;;;8.90;99.90;;;9.27;58.43;98650.44;4962075;29;20017;-82
2024/03/10 01:32:57;;;;;;;;;;;8.90;99.90;;;9.28;58.37;98649.41;4963017;29;20315;-82
2024/03/10 01:35:25;;;;;;;;;;;8.90;99.90;;;9.27;58.49;98645.97;4962273;28;19927;-82
2024/03/10 01:37:52;;;;;;;;;;;8.90;99.90;;;9.27;58.38;98639.81;4945713;29;19926;-82
2024/03/10 01:40:19;;;;;;;;;;;8.90;99.90;;;9.25;58.15;98637.41;4963206;29;20288;-82
2024/03/10 01:42:53;;;;;;;;;;;8.90;99.90;;;9.26;58.24;98632.88;4945014;29;20312;-82
2024/03/10 01:45:20;;;;;;;;;;;8.90;99.90;;;9.27;58.62;98626.50;4962349;29;19950;-82
2024/03/10 01:47:48;;;;;;;;;;;8.90;99.90;;;9.25;58.27;98610.00;4962326;28;19927;-82
2024/03/10 01:50:18;;;;;;;;;;;8.90;99.90;;;9.24;58.41;98616.38;4945262;29;19930;-82
2024/03/10 01:52:47;;;;;;;;;;;8.80;99.90;;;9.21;58.41;98607.03;4962385;28;19926;-82
2024/03/10 01:55:17;;;;;;;;;;;8.80;99.90;;;9.23;58.65;98609.47;4945318;29;19926;-82
2024/03/10 01:57:45;;;;;;;;;;;8.80;99.90;;;9.23;58.31;98614.78;4962258;28;19933;-82
2024/03/10 02:00:13;;;;;;;;;;;8.90;99.90;;;9.19;58.33;98606.47;4962259;29;20292;-82
2024/03/10 02:02:42;;;;;;;;;;;8.80;99.90;;;9.17;58.16;98595.28;4962415;29;20335;-83
2024/03/10 02:05:09;;;;;;;;;;;8.80;99.90;;;9.17;58.19;98594.47;4944812;29;19930;-82
2024/03/10 02:07:38;;;;;;;;;;;8.80;99.90;;;9.15;58.40;98597.38;4960654;28;20013;-82
2024/03/10 02:10:08;;;;;;;;;;;8.80;99.90;;;9.15;58.37;98589.41;4960536;29;19997;-82
2024/03/10 02:12:37;;;;;;;;;;;8.80;99.90;;;9.14;58.30;98595.78;4944172;29;20438;-82
2024/03/10 02:15:06;;;;;;;;;;;8.80;99.90;;;9.14;58.31;98587.81;4962250;29;19932;-82
2024/03/10 02:17:36;;;;;;;;;;;8.80;99.90;;;9.12;58.51;98579.25;4960400;28;19935;-82
2024/03/10 02:20:04;;;;;;;;;;;8.70;99.90;;;9.14;58.29;98589.66;4960261;29;20018;-82
2024/03/10 02:22:31;;;;;;;;;;;8.70;99.90;;;9.11;58.19;98588.28;4961717;29;19926;-82
2024/03/10 02:25:02;;;;;;;;;;;8.70;99.90;;;9.09;58.45;98578.97;4944243;29;19927;-82
2024/03/10 02:27:33;;;;;;;;;;;8.70;99.90;;;9.09;58.37;98582.44;4959954;28;19933;-82
2024/03/10 02:49:11;;;;;;;;;;;8.70;99.90;;;8.92;58.71;98541.78;4960091;28;19926;-82
2024/03/10 02:51:38;;;;;;;;;;;8.60;99.90;;;8.95;58.70;98538.66;4943451;29;19930;-82
2024/03/10 02:54:06;;;;;;;;;;;8.70;99.90;;;8.95;58.72;98541.31;4943704;29;19990;-82
2024/03/10 02:56:33;;;;;;;;;;;8.70;99.90;;;8.96;58.53;98530.41;4961090;29;19934;-82
2024/03/10 02:59:01;;;;;;;;;;;8.70;99.90;;;8.93;58.74;98530.09;4960852;28;19927;-82
2024/03/10 03:01:28;;;;;;;;;;;8.60;99.90;;;8.95;58.74;98526.16;4961032;29;19926;-82
2024/03/10 03:03:56;;;;;;;;;;;8.60;99.90;;;8.97;58.62;98529.38;4943617;29;20388;-82
2024/03/10 03:06:23;;;;;;;;;;;8.70;99.90;;;9.01;58.76;98521.69;4943767;29;20017;-82
2024/03/10 03:08:50;;;;;;;;;;;8.70;99.90;;;9.01;58.59;98527.03;4942957;29;19927;-82
2024/03/10 03:11:17;;;;;;;;;;;8.70;99.90;;;9.00;58.56;98517.44;4959093;29;19968;-82
2024/03/10 03:13:44;;;;;;;;;;;8.70;99.90;;;8.98;58.71;98512.38;4943309;29;19969;-82
2024/03/10 03:16:13;;;;;;;;;;;8.70;99.90;;;9.01;58.67;98519.84;4943571;29;19926;-82
2024/03/10 03:18:42;;;;;;;;;;;8.70;99.90;;;9.02;58.76;98518.78;4943077;29;20303;-82
2024/03/10 03:21:10;;;;;;;;;;;8.70;99.90;;;9.01;58.57;98522.50;4943392;29;19927;-82
2024/03/10 03:23:37;;;;;;;;;;;8.70;99.90;;;8.99;58.54;98516.63;4942737;29;19937;-82
2024/03/10 03:26:04;;;;;;;;;;;8.70;99.90;;;8.98;58.90;98511.59;4960342;29;19926;-82
2024/03/10 03:28:31;;;;;;;;;;;8.70;99.90;;;8.98;58.86;98514.25;4942428;29;19926;-82
2024/03/10 03:30:59;;;;;;;;;;;8.60;99.90;;;8.98;58.89;98507.06;4943112;29;19926;-82
2024/03/10 03:33:28;;;;;;;;;;;8.60;99.90;;;8.96;59.01;98505.69;4928161;29;20094;-82
2024/03/10 03:35:55;;;;;;;;;;;8.60;99.90;;;8.96;59.22;98500.38;4942899;29;19927;-82
2024/03/10 03:38:22;;;;;;;;;;;8.60;99.90;;;8.90;58.88;98498.72;4942852;29;19926;-82
2024/03/10 03:40:49;;;;;;;;;;;8.60;99.90;;;8.88;58.89;98498.97;4960035;29;19957;-82
2024/03/10 03:43:17;;;;;;;;;;;8.50;99.90;;;8.89;59.09;98489.94;4926963;29;19992;-82
2024/03/10 03:45:44;;;;;;;;;;;8.50;99.90;;;8.89;59.13;98491.81;4959529;28;20025;-82
2024/03/10 03:48:11;;;;;;;;;;;8.50;99.90;;;8.88;59.13;98484.84;4939260;29;19927;-82
2024/03/10 03:50:40;;;;;;;;;;;8.50;99.90;;;8.81;58.77;98485.06;4941532;29;19927;-82
2024/03/10 03:53:07;;;;;;;;;;;8.50;99.90;;;8.74;59.05;98487.13;4940115;29;19931;-82
2024/03/10 03:55:35;;;;;;;;;;;8.40;99.90;;;8.74;59.16;98477.28;4940900;29;19927;-82
2024/03/10 03:58:02;;;;;;;;;;;8.40;99.90;;;8.72;59.05;98479.38;4939357;29;19949;-82
2024/03/10 04:00:31;;;;;;;;;;;8.40;99.90;;;8.70;59.03;98480.69;4942765;29;19927;-82
2024/03/10 04:02:58;;;;;;;;;;;8.40;99.90;;;8.70;58.89;98473.50;4943271;29;20034;-82
2024/03/10 04:05:25;;;;;;;;;;;8.40;99.90;;;8.65;59.20;98477.97;4944680;29;19927;-82
2024/03/10 04:07:54;;;;;;;;;;;8.40;99.90;;;8.65;59.29;98478.78;4943205;29;19930;-82
2024/03/10 04:10:22;;;;;;;;;;;8.40;99.90;;;8.66;59.03;98482.22;4944566;29;19934;-82
2024/03/10 04:12:49;;;;;;;;;;;8.40;99.90;;;8.61;59.26;98475.00;4944815;29;19927;-82
2024/03/10 04:15:16;;;;;;;;;;;8.30;99.90;;;8.62;59.21;98483.78;4943588;29;19934;-82
2024/03/10 04:17:46;;;;;;;;;;;8.30;99.90;;;8.62;59.32;98473.94;4958922;28;20380;-82
2024/03/10 04:20:13;;;;;;;;;;;8.30;99.90;;;8.62;59.25;98481.91;4942798;29;19982;-82
2024/03/10 04:22:40;;;;;;;;;;;8.30;99.90;;;8.61;59.04;98475.00;4942788;29;19951;-82
2024/03/10 04:25:10;;;;;;;;;;;8.30;99.90;;;8.63;59.28;98478.19;4959005;28;19927;-82
2024/03/10 04:27:37;;;;;;;;;;;8.30;99.90;;;8.64;59.28;98466.53;4945076;29;19970;-82
2024/03/10 04:30:06;;;;;;;;;;;8.30;99.90;;;8.59;59.07;98474.44;4944788;29;19990;-82
2024/03/10 04:32:34;;;;;;;;;;;8.30;99.90;;;8.59;59.20;98471.78;4943902;29;19930;-82
2024/03/10 04:35:01;;;;;;;;;;;8.30;99.90;;;8.61;59.07;98451.09;4926808;29;20382;-82
2024/03/10 04:37:28;;;;;;;;;;;8.20;99.90;;;8.61;59.27;98451.09;4943106;29;20025;-81
2024/03/10 04:39:55;;;;;;;;;;;8.30;99.90;;;8.61;59.14;98450.28;4944190;29;20403;-82
2024/03/10 04:42:24;;;;;;;;;;;8.30;99.90;;;8.56;59.09;98451.03;4942545;29;19970;-82
2024/03/10 04:44:51;;;;;;;;;;;8.20;99.90;;;8.57;59.39;98457.13;4942549;29;19933;-82
2024/03/10 04:47:19;;;;;;;;;;;8.20;99.90;;;8.54;59.16;98449.66;4949884;28;19934;-82
2024/03/10 04:49:47;;;;;;;;;;;8.20;99.90;;;8.52;59.28;98441.94;4929731;29;19962;-82
2024/03/10 04:52:14;;;;;;;;;;;8.10;99.90;;;8.50;59.36;98450.16;4946105;29;19926;-82
2024/03/10 04:54:41;;;;;;;;;;;8.10;99.90;;;8.45;59.11;98446.66;4945347;29;19933;-82
2024/03/10 04:57:08;;;;;;;;;;;8.10;99.90;;;8.44;59.25;98450.31;4962280;28;19926;-82
2024/03/10 04:59:37;;;;;;;;;;;8.10;99.90;;;8.40;59.42;98439.41;4962549;28;19926;-82
2024/03/10 05:02:05;;;;;;;;;;;8.00;99.90;;;8.41;59.42;98442.88;4928328;29;19977;-82
2024/03/10 05:04:32;;;;;;;;;;;8.00;99.90;;;8.40;59.38;98436.75;4945384;29;19953;-82
2024/03/10 05:06:59;;;;;;;;;;;8.10;99.90;;;8.36;59.39;98440.97;4945371;29;20013;-82
2024/03/10 05:09:26;;;;;;;;;;;8.00;99.90;;;8.33;59.62;98435.28;4962351;29;19926;-82
2024/03/10 05:11:54;;;;;;;;;;;8.00;99.90;;;8.37;59.55;98418.66;4960998;28;19948;-82
2024/03/10 05:14:21;;;;;;;;;;;8.00;99.90;;;8.36;59.50;98426.84;4962574;28;19949;-82
2024/03/10 05:16:49;;;;;;;;;;;8.00;99.90;;;8.33;59.46;98435.28;4945212;29;20033;-82
2024/03/10 05:19:17;;;;;;;;;;;8.00;99.90;;;8.34;59.35;98428.94;4944547;29;19932;-82
2024/03/10 05:21:46;;;;;;;;;;;8.00;99.90;;;8.30;59.64;98423.31;4945440;29;19926;-82
2024/03/10 05:24:13;;;;;;;;;;;8.00;99.90;;;8.25;59.49;98424.06;4945673;29;20396;-82
2024/03/10 05:26:40;;;;;;;;;;;7.90;99.90;;;8.22;59.74;98418.44;4944989;29;19966;-82
2024/03/10 05:29:09;;;;;;;;;;;7.90;99.90;;;8.17;60.03;98415.72;4945291;29;19927;-82
2024/03/10 05:31:36;;;;;;;;;;;7.90;99.90;;;8.13;59.61;98419.91;4945183;29;19981;-82
2024/03/10 05:34:05;;;;;;;;;;;7.80;99.90;;;8.12;59.94;98419.09;4962332;28;19926;-82
2024/03/10 05:36:33;;;;;;;;;;;7.80;99.90;;;8.07;60.25;98413.72;4961940;28;20304;-82
2024/03/10 05:39:00;;;;;;;;;;;7.80;99.90;;;8.08;60.13;98419.84;4944436;29;19927;-82
2024/03/10 05:41:27;;;;;;;;;;;7.80;99.90;;;8.08;59.95;98423.28;4962275;28;19926;-82
2024/03/10 05:43:55;;;;;;;;;;;7.80;99.90;;;8.06;59.93;98417.44;4944407;29;20025;-82
2024/03/10 05:46:22;;;;;;;;;;;7.80;99.90;;;8.05;59.80;98415.81;4962456;28;19926;-82
2024/03/10 05:48:49;;;;;;;;;;;7.80;99.90;;;8.02;60.00;98415.53;4961953;28;19926;-82
2024/03/10 05:51:18;;;;;;;;;;;7.80;99.90;;;8.01;60.04;98422.69;4962080;28;19954;-82
2024/03/10 05:53:45;;;;;;;;;;;7.70;99.90;;;8.00;60.15;98423.72;4962491;29;19986;-82
2024/03/10 05:56:12;;;;;;;;;;;7.70;99.90;;;7.95;60.21;98427.13;4962229;28;19926;-82
2024/03/10 05:58:40;;;;;;;;;;;7.70;99.90;;;7.97;60.37;98426.88;4944389;29;19930;-82
2024/03/10 06:01:08;;;;;;;;;;;7.70;99.90;;;8.03;60.06;98425.88;4962215;29;20343;-82
2024/03/10 06:03:35;;;;;;;;;;;7.80;99.90;;;8.02;59.81;98434.09;4944407;29;19926;-82
2024/03/10 06:06:02;;;;;;;;;;;7.80;99.90;;;8.01;60.00;98435.97;4962181;29;19962;-82
2024/03/10 06:08:30;;;;;;;;;;;7.80;99.90;;;8.03;60.11;98431.19;4961960;28;19981;-82
2024/03/10 06:10:58;;;;;;;;;;;7.80;99.90;;;8.10;60.08;98433.66;4961491;29;19927;-82
2024/03/10 06:13:25;;;;;;;;;;;7.80;99.90;;;8.09;59.95;98437.38;4944351;29;19926;-82
2024/03/10 06:15:54;;;;;;;;;;;7.80;99.90;;;8.10;59.82;98436.31;4961550;29;19945;-82
2024/03/10 06:18:24;;;;;;;;;;;7.80;99.90;;;8.13;59.57;98443.81;4944632;29;19930;-82
2024/03/10 06:26:22;;;;;;;;;;;7.80;99.90;;;8.14;59.48;98440.91;4961010;29;19927;-81
2024/03/10 06:28:50;;;;;;;;;;;7.80;99.90;;;8.15;59.56;98444.34;4944204;29;19950;-82
2024/03/10 06:31:17;;;;;;;;;;;7.80;99.90;;;8.14;59.56;98442.75;4942238;29;20280;-81
2024/03/10 06:33:50;;;;;;;;;;;7.80;99.90;;;8.15;59.59;98441.69;4923662;29;20376;-81
2024/03/10 06:36:17;;;;;;;;;;;7.80;99.90;;;8.14;59.55;98435.59;4923987;29;20348;-81
2024/03/10 06:38:46;;;;;;;;;;;7.80;99.90;;;8.17;59.57;98445.72;4940418;29;20032;-81
2024/03/10 06:41:13;;;;;;;;;;;7.90;99.90;;;8.19;59.66;98448.94;4923007;29;20435;-81
2024/03/10 06:43:41;;;;;;;;;;;7.90;99.90;;;8.22;59.64;98455.59;4923037;29;19934;-81
2024/03/10 06:46:09;;;;;;;;;;;7.90;99.90;;;8.22;59.50;98451.09;4933939;29;19965;-81
2024/03/10 06:48:36;;;;;;;;;;;7.90;99.90;;;8.17;59.46;98453.69;4959195;28;19927;-81
2024/03/10 06:51:05;;;;;;;;;;;7.90;99.90;;;8.18;59.54;98459.81;4926789;29;19962;-82
2024/03/10 06:53:33;;;;;;;;;;;7.90;99.90;;;8.18;59.53;98455.28;4938481;29;19978;-81
2024/03/10 06:56:03;;;;;;;;;;;7.90;99.90;;;8.18;59.64;98460.59;4939700;29;19926;-81
2024/03/10 06:58:30;;;;;;;;;;;7.90;99.90;;;8.17;59.63;98461.66;4925020;29;20411;-80
2024/03/10 07:00:59;;;;;;;;;;;7.90;99.90;;;8.17;59.88;98460.84;4958891;29;19927;-81
2024/03/10 07:03:27;;;;;;;;;;;7.90;99.90;;;8.21;59.79;98467.28;4958389;29;20021;-81
2024/03/10 07:05:54;;;;;;;;;;;7.90;99.90;;;8.19;59.52;98467.50;4959215;29;20384;-81
2024/03/10 07:08:21;;;;;;;;;;;7.90;99.90;;;8.18;59.64;98473.88;4953399;29;19933;-81
2024/03/10 07:10:49;;;;;;;;;;;7.90;99.90;;;8.19;59.60;98464.06;4959471;29;19930;-81
2024/03/10 07:13:18;;;;;;;;;;;7.90;99.90;;;8.15;59.71;98462.94;4957440;28;20300;-81
2024/03/10 07:15:46;;;;;;;;;;;7.90;99.90;;;8.12;59.80;98472.22;4960697;29;20450;-81
2024/03/10 07:18:13;;;;;;;;;;;7.90;99.90;;;8.05;59.97;98470.75;4960733;29;19931;-81
2024/03/10 07:20:41;;;;;;;;;;;7.80;99.90;;;8.02;60.15;98464.09;4945607;29;20067;-81
2024/03/10 07:23:12;;;;;;;;;;;7.80;99.90;;;7.99;60.49;98465.38;4942209;29;20311;-82
2024/03/10 07:25:40;;;;;;;;;;;7.80;99.90;;;8.05;60.14;98465.44;4925957;29;19962;-82
2024/03/10 07:28:08;;;;;;;;;;;7.80;99.90;;;8.09;59.79;98469.22;4924743;29;19927;-82
2024/03/10 07:30:37;;;;;;;;;;;7.80;99.90;;;8.09;60.02;98464.72;4935971;29;19926;-84
2024/03/10 07:33:05;;;;;;;;;;;7.90;99.90;;;8.12;60.18;98474.06;4960517;28;19926;-83
2024/03/10 07:35:32;;;;;;;;;;;7.90;99.90;;;8.09;60.17;98464.72;4943006;29;19926;-81
2024/03/10 07:38:00;;;;;;;;;;;7.90;99.90;;;8.09;60.21;98461.25;4943697;29;19931;-81
2024/03/10 07:40:27;;;;;;;;;;;7.90;99.90;;;8.11;59.98;98462.63;4944008;29;20395;-81
2024/03/10 07:42:55;;;;;;;;;;;7.90;99.90;;;8.10;60.18;98461.03;4943716;28;20033;-82
2024/03/10 07:45:23;;;;;;;;;;;7.90;99.90;;;8.12;60.09;98456.28;4924640;29;19927;-81
2024/03/10 07:47:52;;;;;;;;;;;7.90;99.90;;;8.17;60.09;98456.34;4908870;29;19978;-84
2024/03/10 07:50:43;;;;;;;;;;;8.00;99.90;;;8.26;60.13;98460.19;4942500;29;19938;-85
2024/03/10 07:53:10;;;;;;;;;;;8.00;99.90;;;8.27;60.28;98458.34;4924663;29;19931;-85
2024/03/10 07:55:38;;;;;;;;;;;8.10;99.90;;;8.27;59.88;98453.03;4931766;29;19926;-84
2024/03/10 07:58:05;;;;;;;;;;;8.10;99.90;;;8.29;60.01;98447.44;4943981;29;19927;-84
2024/03/10 08:00:33;;;;;;;;;;;8.10;99.90;;;8.27;60.16;98445.84;4959110;28;19997;-84
2024/03/10 08:03:02;;;;;;;;;;;8.10;99.90;;;8.25;59.98;98450.63;4942463;29;19926;-84
2024/03/10 08:05:30;;;;;;;;;;;8.10;99.90;;;8.32;60.19;98457.59;4942602;29;20372;-85
2024/03/10 08:07:58;;;;;;;;;;;8.10;99.90;;;8.35;60.08;98457.91;4938940;28;19933;-82
2024/03/10 08:10:25;;;;;;;;;;;8.20;99.90;;;8.37;59.83;98455.03;4960414;28;19998;-82
2024/03/10 08:12:55;;;;;;;;;;;8.20;99.90;;;8.39;59.75;98459.03;4939024;29;19926;-82
2024/03/10 08:15:23;;;;;;;;;;;8.20;99.90;;;8.42;60.03;98457.75;4945096;29;19927;-82
2024/03/10 08:17:50;;;;;;;;;;;8.20;99.90;;;8.41;60.14;98458.81;4932915;29;20368;-82
2024/03/10 08:20:19;;;;;;;;;;;8.20;99.90;;;8.45;60.13;98454.63;4941468;29;19927;-82
2024/03/10 08:22:49;;;;;;;;;;;8.30;99.90;;;8.45;60.16;98459.94;4954784;29;20311;-82
2024/03/10 08:25:18;;;;;;;;;;;8.30;99.90;;;8.47;60.02;98457.81;4952573;29;19950;-82
2024/03/10 08:27:49;;;;;;;;;;;8.30;99.90;;;8.49;59.92;98461.84;4931172;29;19933;-82
2024/03/10 08:30:17;;;;;;;;;;;8.30;99.90;;;8.48;60.05;98457.56;4941173;29;19993;-82
2024/03/10 08:32:44;;;;;;;;;;;8.30;99.90;;;8.50;60.18;98452.03;4951007;28;19942;-84
2024/03/10 08:35:11;;;;;;;;;;;8.30;99.90;;;8.51;60.32;98443.78;4945041;29;20376;-83
2024/03/10 08:37:41;;;;;;;;;;;8.40;99.90;;;8.51;60.35;98443.78;4955210;29;19933;-82
2024/03/10 08:40:10;;;;;;;;;;;8.40;99.90;;;8.56;60.46;98443.06;4956353;29;19932;-83
2024/03/10 08:42:38;;;;;;;;;;;8.50;99.90;;;8.69;60.47;98447.19;4956803;29;19927;-82
2024/03/10 08:45:10;;;;;;;;;;;8.60;99.90;;;8.76;60.35;98450.44;4940870;29;19942;-84
2024/03/10 08:47:38;;;;;;;;;;;8.70;99.90;;;8.75;60.10;98452.31;4937741;29;19926;-84
2024/03/10 08:50:08;;;;;;;;;;;8.70;99.90;;;8.83;59.92;98458.22;4930924;29;19927;-84
2024/03/10 08:52:36;;;;;;;;;;;8.80;99.90;;;8.81;59.86;98463.00;4923672;29;19991;-83
2024/03/10 08:55:07;;;;;;;;;;;8.80;99.90;;;8.82;60.10;98460.09;4942998;29;19965;-83
2024/03/10 08:57:35;;;;;;;;;;;8.80;99.90;;;8.83;59.84;98463.53;4944765;29;19930;-84
2024/03/10 09:00:02;;;;;;;;;;;8.80;99.90;;;8.87;60.05;98469.97;4942888;29;19962;-84
2024/03/10 09:02:30;;;;;;;;;;;8.80;99.90;;;8.86;59.94;98457.72;4944038;29;19930;-83
2024/03/10 09:04:57;;;;;;;;;;;8.80;99.90;;;8.83;60.15;98443.06;4944598;29;19974;-84
2024/03/10 09:07:31;;;;;;;;;;;8.80;99.90;;;8.88;60.22;98459.09;4940663;29;19975;-83
2024/03/10 09:09:59;;;;;;;;;;;8.80;99.90;;;8.88;59.83;98451.13;4939419;29;20356;-84
2024/03/10 09:12:28;;;;;;;;;;;8.90;99.90;;;8.91;60.11;98439.19;4940938;29;19935;-84
2024/03/10 09:14:57;;;;;;;;;;;8.90;99.90;;;8.93;60.28;98431.75;4940240;29;19927;-84
2024/03/10 09:17:25;;;;;;;;;;;8.90;99.90;;;9.00;60.14;98424.38;4954365;28;19927;-84
2024/03/10 09:19:52;;;;;;;;;;;9.00;99.90;;;9.09;60.07;98425.53;4909778;29;19928;-84
2024/03/10 09:22:20;;;;;;;;;;;9.10;99.90;;;9.15;60.12;98421.88;4928001;29;20480;-84
2024/03/10 09:24:48;;;;;;;;;;;9.20;99.90;;;9.24;60.35;98428.34;4943362;29;19997;-84
2024/03/10 09:27:16;;;;;;;;;;;9.30;99.90;;;9.30;60.00;98421.19;4950733;29;19938;-84
2024/03/10 09:29:46;;;;;;;;;;;9.40;99.90;;;9.31;59.67;98425.47;4924421;29;19927;-84
2024/03/10 09:32:15;;;;;;;;;;;9.40;99.90;;;9.35;59.56;98425.75;4926385;29;19927;-84
2024/03/10 09:34:43;;;;;;;;;;;9.40;99.90;;;9.39;59.60;98426.88;4934342;29;19954;-84
2024/03/10 09:37:10;;;;;;;;;;;9.40;99.90;;;9.42;59.61;98419.19;4944220;29;19927;-84
2024/03/10 09:39:40;;;;;;;;;;;9.50;99.90;;;9.48;59.61;98417.38;4943419;29;19951;-84
2024/03/10 09:42:08;;;;;;;;;;;9.50;99.90;;;9.51;59.84;98411.50;4937202;29;19959;-84
2024/03/10 09:44:36;;;;;;;;;;;9.60;99.90;;;9.53;59.33;98393.44;4923301;29;19935;-84
2024/03/10 09:47:06;;;;;;;;;;;9.60;99.90;;;9.58;59.68;98379.38;4927802;29;19927;-84
2024/03/10 09:49:34;;;;;;;;;;;9.60;99.90;;;9.67;59.80;98377.84;4942783;29;19926;-84
2024/03/10 09:52:01;;;;;;;;;;;9.70;99.90;;;9.70;59.52;98372.78;4943266;29;19931;-84
2024/03/10 09:54:29;;;;;;;;;;;9.80;99.90;;;9.76;58.92;98382.44;4942749;29;19939;-84
2024/03/10 09:56:59;;;;;;;;;;;9.90;99.90;;;9.81;58.92;98379.00;4941057;29;19927;-84
2024/03/10 09:59:33;;;;;;;;;;;9.90;99.90;;;9.83;58.86;98363.56;4926650;29;20017;-84
2024/03/10 10:02:03;;;;;;;;;;;10.00;99.90;;;9.87;58.50;98369.19;4926118;29;20423;-84
2024/03/10 10:04:37;;;;;;;;;;;10.00;99.90;;;9.91;58.75;98384.38;4910996;29;19931;-84
2024/03/10 10:07:09;;;;;;;;;;;10.10;99.90;;;9.96;58.49;98386.28;4943350;29;19926;-84
2024/03/10 10:09:36;;;;;;;;;;;10.10;99.90;;;10.01;58.29;98389.75;4941221;29;20344;-84
2024/03/10 10:12:04;;;;;;;;;;;10.20;99.90;;;10.07;58.20;98382.59;4941444;29;20026;-84
2024/03/10 10:14:33;;;;;;;;;;;10.20;99.90;;;10.15;58.07;98402.59;4942165;29;19937;-84
2024/03/10 10:17:02;;;;;;;;;;;10.30;99.90;;;10.21;57.92;98397.03;4943460;29;19927;-84
2024/03/10 10:19:36;;;;;;;;;;;10.40;99.90;;;10.26;57.70;98397.09;4943279;29;19927;-84
2024/03/10 10:22:06;;;;;;;;;;;10.40;99.90;;;10.33;57.86;98396.84;4925188;29;20000;-84
2024/03/10 10:24:33;;;;;;;;;;;10.50;99.90;;;10.38;57.67;98396.06;4925463;29;19943;-84
2024/03/10 10:27:02;;;;;;;;;;;10.60;99.90;;;10.39;57.58;98385.13;4942017;29;19970;-84
2024/03/10 10:29:30;;;;;;;;;;;10.60;99.90;;;10.40;57.82;98386.75;4940848;29;19927;-84
2024/03/10 10:31:59;;;;;;;;;;;10.60;99.90;;;10.44;57.15;98379.03;4925197;29;19927;-84
2024/03/10 10:34:27;;;;;;;;;;;10.60;99.90;;;10.48;57.85;98377.44;4942918;29;19933;-84
2024/03/10 10:36:56;;;;;;;;;;;10.70;99.90;;;10.52;57.34;98379.31;4925464;29;19951;-84
2024/03/10 10:39:29;;;;;;;;;;;10.70;99.90;;;10.56;57.34;98382.28;4925139;29;20025;-84
2024/03/10 10:41:58;;;;;;;;;;;10.70;99.90;;;10.62;57.40;98383.09;4926575;29;19934;-84
2024/03/10 10:44:26;;;;;;;;;;;10.80;99.90;;;10.65;56.75;98372.69;4941785;29;20371;-86
2024/03/10 10:46:53;;;;;;;;;;;10.90;99.90;;;10.70;57.14;98379.91;4926351;28;19931;-83
2024/03/10 10:49:21;;;;;;;;;;;10.90;99.90;;;10.72;56.70;98377.78;4944927;29;19933;-81
2024/03/10 10:51:50;;;;;;;;;;;10.90;99.90;;;10.77;57.11;98375.91;4928107;29;19933;-82
2024/03/10 10:54:19;;;;;;;;;;;10.90;99.90;;;10.80;56.68;98375.41;4955274;29;19927;-83
2024/03/10 10:56:54;;;;;;;;;;;11.00;99.90;;;10.84;56.33;98373.00;4953222;28;19957;-82
2024/03/10 10:59:24;;;;;;;;;;;11.00;99.90;;;10.90;56.47;98371.94;4935509;29;20449;-83
2024/03/10 11:01:55;;;;;;;;;;;11.10;99.90;;;11.00;56.18;98371.16;4960479;29;20106;-83
2024/03/10 11:04:26;;;;;;;;;;;11.20;99.90;;;11.08;56.39;98362.63;4960199;29;19927;-82
2024/03/10 11:06:57;;;;;;;;;;;11.30;99.90;;;11.15;56.21;98371.16;4959503;29;19938;-82
2024/03/10 11:09:30;;;;;;;;;;;11.40;99.90;;;11.20;56.32;98367.69;4940226;29;19926;-83
2024/03/10 11:11:58;;;;;;;;;;;11.40;99.90;;;11.27;55.84;98377.03;4958039;29;19927;-83
2024/03/10 11:14:27;;;;;;;;;;;11.50;99.90;;;11.28;55.81;98370.63;4957957;28;19926;-83
2024/03/10 11:17:15;;;;;;;;;;;11.50;99.90;;;11.29;56.01;98374.09;4960366;29;19926;-83
2024/03/10 11:19:45;;;;;;;;;;;11.50;99.90;;;11.28;56.30;98364.50;4958825;28;19934;-83
2024/03/10 11:22:12;;;;;;;;;;;11.50;99.90;;;11.27;56.16;98366.38;4959018;29;20021;-83
2024/03/10 11:24:41;;;;;;;;;;;11.50;99.90;;;11.32;56.39;98374.38;4957818;28;19934;-83
2024/03/10 11:27:15;;;;;;;;;;;11.60;99.90;;;11.35;55.88;98376.50;4958589;29;19927;-83
2024/03/10 11:29:43;;;;;;;;;;;11.60;99.90;;;11.39;55.62;98378.63;4923591;29;20392;-83
2024/03/10 11:32:31;;;;;;;;;;;11.60;99.90;;;11.40;55.89;98380.22;4922188;29;20410;-82
2024/03/10 11:35:06;;;;;;;;;;;11.60;99.90;;;11.37;55.61;98373.56;4923997;29;19934;-82
2024/03/10 11:37:35;;;;;;;;;;;11.60;99.90;;;11.43;55.89;98377.84;4941392;29;20349;-81
2024/03/10 11:40:05;;;;;;;;;;;11.70;99.90;;;11.50;56.31;98374.88;4930029;29;19938;-81
2024/03/10 11:42:33;;;;;;;;;;;11.70;99.90;;;11.53;55.67;98366.34;4948979;29;19978;-81
2024/03/10 11:45:02;;;;;;;;;;;11.80;99.90;;;11.54;56.12;98368.75;4923185;29;19982;-81
2024/03/10 11:47:31;;;;;;;;;;;11.80;99.90;;;11.56;55.38;98365.78;4924016;29;19927;-81
2024/03/10 11:50:00;;;;;;;;;;;11.80;99.90;;;11.60;55.75;98356.19;4940041;29;20025;-81
2024/03/10 11:52:27;;;;;;;;;;;11.80;99.90;;;11.66;55.71;98355.09;4924221;29;20368;-81
2024/03/10 11:54:58;;;;;;;;;;;11.90;99.90;;;11.66;55.48;98364.97;4940265;29;19927;-80
2024/03/10 11:57:27;;;;;;;;;;;11.90;99.90;;;11.65;55.35;98369.50;4940891;29;19931;-81
2024/03/10 11:59:55;;;;;;;;;;;11.90;99.90;;;11.66;55.20;98355.09;4923137;29;19927;-81
2024/03/10 12:02:23;;;;;;;;;;;11.90;99.90;;;11.72;55.90;98350.56;4940260;29;19954;-85